sensor_id;sensor_type;location;lat;lon;timestamp;pressure;altitude;pressure_sealevel;temperature;humidity
7748;BME280;3918;42.564;23.164;2024-01-11T05:01:32;-11650.84;;;-142.29;100.00
7748;BME280;3918;42.564;23.164;2024-01-11T05:03:59;-11650.84;;;-142.29;100.00
7748;BME280;3918;42.564;23.164;2024-01-11T05:06:26;-11650.84;;;-142.29;100.00
7748;BME280;3918;42.564;23.164;2024-01-11T05:08:53;-11650.84;;;-142.29;100.00
7748;BME280;3918;42.564;23.164;2024-01-11T05:11:20;-11650.84;;;-142.29;100.00
7748;BME280;3918;42.564;23.164;2024-01-11T05:13:48;-11650.84;;;-142.29;100.00
7748;BME280;3918;42.564;23.164;2024-01-11T05:16:21;-11650.84;;;-142.29;100.00
7748;BME280;3918;42.564;23.164;2024-01-11T05:18:49;-11650.84;;;-142.29;100.00
7748;BME280;3918;42.564;23.164;2024-01-11T05:21:17;-11650.84;;;-142.29;100.00
7748;BME280;3918;42.564;23.164;2024-01-11T05:23:44;-11650.84;;;-142.29;100.00
7748;BME280;3918;42.564;23.164;2024-01-11T05:26:10;-11650.84;;;-142.29;100.00
7748;BME280;3918;42.564;23.164;2024-01-11T05:28:37;-11650.84;;;-142.29;100.00
7748;BME280;3918;42.564;23.164;2024-01-11T05:31:05;-11650.84;;;-142.29;100.00
7748;BME280;3918;42.564;23.164;2024-01-11T05:33:32;-11650.84;;;-142.29;100.00
7748;BME280;3918;42.564;23.164;2024-01-11T05:36:01;-11650.84;;;-142.29;100.00
7748;BME280;3918;42.564;23.164;2024-01-11T05:38:28;-11650.84;;;-142.29;100.00
7748;BME280;3918;42.564;23.164;2024-01-11T05:40:54;-11650.84;;;-142.29;100.00
7748;BME280;3918;42.564;23.164;2024-01-11T05:43:21;-11650.84;;;-142.29;100.00
7748;BME280;3918;42.564;23.164;2024-01-11T05:45:48;-11650.84;;;-142.29;100.00
7748;BME280;3918;42.564;23.164;2024-01-11T05:48:15;-11650.84;;;-142.29;100.00
7748;BME280;3918;42.564;23.164;2024-01-11T05:50:42;-11650.84;;;-142.29;100.00
7748;BME280;3918;42.564;23.164;2024-01-11T05:53:11;-11650.84;;;-142.29;100.00
7748;BME280;3918;42.564;23.164;2024-01-11T05:55:38;-11650.84;;;-142.29;100.00
7748;BME280;3918;42.564;23.164;2024-01-11T05:58:04;-11650.84;;;-142.29;100.00
7748;BME280;3918;42.564;23.164;2024-01-11T06:00:31;-11650.84;;;-142.29;100.00
7748;BME280;3918;42.564;23.164;2024-01-11T06:02:58;-11650.84;;;-142.29;100.00
7748;BME280;3918;42.564;23.164;2024-01-11T06:05:26;-11650.84;;;-142.29;100.00
7748;BME280;3918;42.564;23.164;2024-01-11T06:07:53;-11650.84;;;-142.29;100.00
7748;BME280;3918;42.564;23.164;2024-01-11T06:10:21;-11650.84;;;-142.29;100.00
7748;BME280;3918;42.564;23.164;2024-01-11T06:12:48;-11650.84;;;-142.29;100.00
7748;BME280;3918;42.564;23.164;2024-01-11T06:15:14;-11650.84;;;-142.29;100.00
7748;BME280;3918;42.564;23.164;2024-01-11T06:17:41;-11650.84;;;-142.29;100.00
7748;BME280;3918;42.564;23.164;2024-01-11T06:20:09;-11650.84;;;-142.29;100.00
7748;BME280;3918;42.564;23.164;2024-01-11T06:22:36;-11650.84;;;-142.29;100.00
7748;BME280;3918;42.564;23.164;2024-01-11T06:25:04;-11650.84;;;-142.29;100.00
7748;BME280;3918;42.564;23.164;2024-01-11T06:27:32;-11650.84;;;-142.29;100.00
7748;BME280;3918;42.564;23.164;2024-01-11T06:29:59;-11650.84;;;-142.29;100.00
7748;BME280;3918;42.564;23.164;2024-01-11T06:32:26;-11650.84;;;-142.29;100.00
7748;BME280;3918;42.564;23.164;2024-01-11T06:34:53;-11650.84;;;-142.29;100.00
7748;BME280;3918;42.564;23.164;2024-01-11T06:37:20;-11650.84;;;-142.29;100.00
7748;BME280;3918;42.564;23.164;2024-01-11T06:39:48;-11650.84;;;-142.29;100.00
7748;BME280;3918;42.564;23.164;2024-01-11T06:42:14;-11650.84;;;-142.29;100.00
7748;BME280;3918;42.564;23.164;2024-01-11T06:44:42;-11650.84;;;-142.29;100.00
7748;BME280;3918;42.564;23.164;2024-01-11T06:47:09;-11650.84;;;-142.29;100.00
7748;BME280;3918;42.564;23.164;2024-01-11T06:49:38;-11650.84;;;-142.29;100.00
7748;BME280;3918;42.564;23.164;2024-01-11T06:52:06;-11650.84;;;-142.29;100.00
7748;BME280;3918;42.564;23.164;2024-01-11T06:54:32;-11650.84;;;-142.29;100.00
7748;BME280;3918;42.564;23.164;2024-01-11T06:56:59;-11650.84;;;-142.29;100.00
7748;BME280;3918;42.564;23.164;2024-01-11T06:59:26;-11650.84;;;-142.29;100.00
7748;BME280;3918;42.564;23.164;2024-01-11T07:01:54;-11650.84;;;-142.29;100.00
7748;BME280;3918;42.564;23.164;2024-01-11T07:04:21;-11650.84;;;-142.29;100.00
7748;BME280;3918;42.564;23.164;2024-01-11T07:06:48;-11650.84;;;-142.29;100.00
7748;BME280;3918;42.564;23.164;2024-01-11T07:09:15;-11650.84;;;-142.29;100.00
7748;BME280;3918;42.564;23.164;2024-01-11T07:11:43;-11650.84;;;-142.29;100.00
7748;BME280;3918;42.564;23.164;2024-01-11T07:14:09;-11650.84;;;-142.29;100.00
7748;BME280;3918;42.564;23.164;2024-01-11T07:16:36;-11650.84;;;-142.29;100.00
7748;BME280;3918;42.564;23.164;2024-01-11T07:19:04;-11650.84;;;-142.29;90.09
7748;BME280;3918;42.564;23.164;2024-01-11T07:21:31;-11650.84;;;-142.29;68.23
7748;BME280;3918;42.564;23.164;2024-01-11T07:23:58;-11650.84;;;-142.29;70.62
7748;BME280;3918;42.564;23.164;2024-01-11T07:26:25;-11650.84;;;-142.29;71.22
7748;BME280;3918;42.564;23.164;2024-01-11T07:28:53;-11650.84;;;-142.29;70.92
7748;BME280;3918;42.564;23.164;2024-01-11T07:31:21;-11650.84;;;-142.29;64.21
7748;BME280;3918;42.564;23.164;2024-01-11T07:33:48;-11650.84;;;-142.29;61.69
7748;BME280;3918;42.564;23.164;2024-01-11T07:36:17;-11650.84;;;-142.29;59.66
7748;BME280;3918;42.564;23.164;2024-01-11T07:38:43;-11650.84;;;-142.29;58.28
7748;BME280;3918;42.564;23.164;2024-01-11T07:41:10;-11650.84;;;-142.29;52.82
7748;BME280;3918;42.564;23.164;2024-01-11T07:43:37;-11650.84;;;-142.29;47.97
7748;BME280;3918;42.564;23.164;2024-01-11T07:46:04;-11650.84;;;-142.29;44.00
7748;BME280;3918;42.564;23.164;2024-01-11T07:48:33;-11650.84;;;-142.29;42.15
7748;BME280;3918;42.564;23.164;2024-01-11T07:51:00;-11650.84;;;-142.29;41.62
7748;BME280;3918;42.564;23.164;2024-01-11T07:53:28;-11650.84;;;-142.29;39.21
7748;BME280;3918;42.564;23.164;2024-01-11T07:55:57;-11650.84;;;-142.29;38.96
7748;BME280;3918;42.564;23.164;2024-01-11T07:58:24;-11650.84;;;-142.29;40.01
7748;BME280;3918;42.564;23.164;2024-01-11T08:00:50;-11650.84;;;-142.29;38.72
7748;BME280;3918;42.564;23.164;2024-01-11T08:03:17;-11650.84;;;-142.29;38.77
7748;BME280;3918;42.564;23.164;2024-01-11T08:05:44;-11650.84;;;-142.29;36.62
7748;BME280;3918;42.564;23.164;2024-01-11T08:08:11;-11650.84;;;-142.29;36.92
7748;BME280;3918;42.564;23.164;2024-01-11T08:10:39;-11650.84;;;-142.29;36.08
7748;BME280;3918;42.564;23.164;2024-01-11T08:13:06;-11650.84;;;-142.29;35.86
7748;BME280;3918;42.564;23.164;2024-01-11T08:15:35;-11650.84;;;-142.29;36.36
7748;BME280;3918;42.564;23.164;2024-01-11T08:18:04;-11650.84;;;-142.29;36.52
7748;BME280;3918;42.564;23.164;2024-01-11T08:20:30;-11650.84;;;-142.29;37.58
7748;BME280;3918;42.564;23.164;2024-01-11T08:22:58;-11650.84;;;-142.29;38.14
7748;BME280;3918;42.564;23.164;2024-01-11T08:25:24;-11650.84;;;-142.29;38.36
7748;BME280;3918;42.564;23.164;2024-01-11T08:27:53;-11650.84;;;-142.29;37.30
7748;BME280;3918;42.564;23.164;2024-01-11T08:30:19;-11650.84;;;-142.29;36.47
7748;BME280;3918;42.564;23.164;2024-01-11T08:32:47;-11650.84;;;-142.29;37.82
7748;BME280;3918;42.564;23.164;2024-01-11T08:35:14;-11650.84;;;-142.29;37.99
7748;BME280;3918;42.564;23.164;2024-01-11T08:37:41;-11650.84;;;-142.29;38.74
7748;BME280;3918;42.564;23.164;2024-01-11T08:40:09;-11650.84;;;-142.29;39.87
7748;BME280;3918;42.564;23.164;2024-01-11T08:42:36;-11650.84;;;-142.29;41.03
7748;BME280;3918;42.564;23.164;2024-01-11T08:45:06;-11650.84;;;-142.29;43.43
7748;BME280;3918;42.564;23.164;2024-01-11T08:47:33;-11650.84;;;-142.29;44.38
7748;BME280;3918;42.564;23.164;2024-01-11T08:50:00;-11650.84;;;-142.29;46.07
7748;BME280;3918;42.564;23.164;2024-01-11T08:52:26;-11650.84;;;-142.29;50.55
7748;BME280;3918;42.564;23.164;2024-01-11T08:54:53;-11650.84;;;-142.29;58.12
7748;BME280;3918;42.564;23.164;2024-01-11T08:57:20;-11650.84;;;-142.29;73.01
7748;BME280;3918;42.564;23.164;2024-01-11T08:59:47;-11650.84;;;-142.29;79.17
7748;BME280;3918;42.564;23.164;2024-01-11T09:02:15;-11650.84;;;-142.29;80.89
7748;BME280;3918;42.564;23.164;2024-01-11T09:04:42;-11650.84;;;-142.29;80.51
7748;BME280;3918;42.564;23.164;2024-01-11T09:07:08;-11650.84;;;-142.29;82.05
7748;BME280;3918;42.564;23.164;2024-01-11T09:09:35;-11650.84;;;-142.29;82.47
7748;BME280;3918;42.564;23.164;2024-01-11T09:12:02;-11650.84;;;-142.29;83.16
7748;BME280;3918;42.564;23.164;2024-01-11T09:14:29;-11650.84;;;-142.29;88.43
7748;BME280;3918;42.564;23.164;2024-01-11T09:16:55;-11650.84;;;-142.29;90.55
7748;BME280;3918;42.564;23.164;2024-01-11T09:19:24;-11650.84;;;-142.29;91.04
7748;BME280;3918;42.564;23.164;2024-01-11T09:21:50;-11650.84;;;-142.29;90.04
7748;BME280;3918;42.564;23.164;2024-01-11T09:24:17;-11650.84;;;-142.29;89.72
7748;BME280;3918;42.564;23.164;2024-01-11T09:26:44;-11650.84;;;-142.29;93.00
7748;BME280;3918;42.564;23.164;2024-01-11T09:29:11;-11650.84;;;-142.29;99.39
7748;BME280;3918;42.564;23.164;2024-01-11T09:31:38;-11650.84;;;-142.29;100.00
7748;BME280;3918;42.564;23.164;2024-01-11T09:34:05;-11650.84;;;-142.29;100.00
7748;BME280;3918;42.564;23.164;2024-01-11T09:36:34;-11650.84;;;-142.29;100.00
7748;BME280;3918;42.564;23.164;2024-01-11T09:39:04;-11650.84;;;-142.29;100.00
7748;BME280;3918;42.564;23.164;2024-01-11T09:41:31;-11650.84;;;-142.29;100.00
7748;BME280;3918;42.564;23.164;2024-01-11T09:44:00;-11650.84;;;-142.29;100.00
7748;BME280;3918;42.564;23.164;2024-01-11T09:46:27;-11650.84;;;-142.29;100.00
7748;BME280;3918;42.564;23.164;2024-01-11T09:48:55;-11650.84;;;-142.29;100.00
7748;BME280;3918;42.564;23.164;2024-01-11T09:51:23;-11650.84;;;-142.29;100.00
7748;BME280;3918;42.564;23.164;2024-01-11T09:53:54;-11650.84;;;-142.29;100.00
7748;BME280;3918;42.564;23.164;2024-01-11T09:56:22;-11650.84;;;-142.29;100.00
7748;BME280;3918;42.564;23.164;2024-01-11T09:58:50;-11650.84;;;-142.29;100.00
7748;BME280;3918;42.564;23.164;2024-01-11T10:01:17;-11650.84;;;-142.29;100.00
7748;BME280;3918;42.564;23.164;2024-01-11T10:03:44;-11650.84;;;-142.29;89.87
7748;BME280;3918;42.564;23.164;2024-01-11T10:06:13;-11650.84;;;-142.29;90.34
7748;BME280;3918;42.564;23.164;2024-01-11T10:08:41;-11650.84;;;-142.29;84.67
7748;BME280;3918;42.564;23.164;2024-01-11T10:11:09;-11650.84;;;-142.29;80.34
7748;BME280;3918;42.564;23.164;2024-01-11T10:13:36;-11650.84;;;-142.29;80.36
7748;BME280;3918;42.564;23.164;2024-01-11T10:16:08;-11650.84;;;-142.29;78.96
7748;BME280;3918;42.564;23.164;2024-01-11T10:18:35;-11650.84;;;-142.29;81.13
7748;BME280;3918;42.564;23.164;2024-01-11T10:21:02;-11650.84;;;-142.29;83.05
7748;BME280;3918;42.564;23.164;2024-01-11T10:23:33;-11650.84;;;-142.29;83.84
7748;BME280;3918;42.564;23.164;2024-01-11T10:26:00;-11650.84;;;-142.29;82.50
7748;BME280;3918;42.564;23.164;2024-01-11T10:28:29;-11650.84;;;-142.29;81.75
7748;BME280;3918;42.564;23.164;2024-01-11T10:30:57;-11650.84;;;-142.29;77.89
7748;BME280;3918;42.564;23.164;2024-01-11T10:33:24;-11650.84;;;-142.29;76.38
7748;BME280;3918;42.564;23.164;2024-01-11T10:35:51;-11650.84;;;-142.29;79.77
7748;BME280;3918;42.564;23.164;2024-01-11T10:38:18;-11650.84;;;-142.29;80.55
7748;BME280;3918;42.564;23.164;2024-01-11T10:40:45;-11650.84;;;-142.29;82.37
7748;BME280;3918;42.564;23.164;2024-01-11T10:43:14;-11650.84;;;-142.29;84.52
7748;BME280;3918;42.564;23.164;2024-01-11T10:45:48;-11650.84;;;-142.29;85.48
7748;BME280;3918;42.564;23.164;2024-01-11T10:48:21;-11650.84;;;-142.29;91.64
7748;BME280;3918;42.564;23.164;2024-01-11T10:50:53;-11650.84;;;-142.29;97.63
7748;BME280;3918;42.564;23.164;2024-01-11T10:53:25;-11650.84;;;-142.29;100.00
7748;BME280;3918;42.564;23.164;2024-01-11T10:55:55;-11650.84;;;-142.29;100.00
7748;BME280;3918;42.564;23.164;2024-01-11T10:58:24;-11650.84;;;-142.29;100.00
7748;BME280;3918;42.564;23.164;2024-01-11T11:00:54;-11650.84;;;-142.29;99.02
7748;BME280;3918;42.564;23.164;2024-01-11T11:03:22;-11650.84;;;-142.29;100.00
7748;BME280;3918;42.564;23.164;2024-01-11T11:05:50;-11650.84;;;-142.29;100.00
7748;BME280;3918;42.564;23.164;2024-01-11T11:08:22;-11650.84;;;-142.29;100.00
7748;BME280;3918;42.564;23.164;2024-01-11T11:10:51;-11650.84;;;-142.29;100.00
7748;BME280;3918;42.564;23.164;2024-01-11T11:13:21;-11650.84;;;-142.29;100.00
7748;BME280;3918;42.564;23.164;2024-01-11T11:15:48;-11650.84;;;-142.29;100.00
7748;BME280;3918;42.564;23.164;2024-01-11T11:18:17;-11650.84;;;-142.29;100.00
7748;BME280;3918;42.564;23.164;2024-01-11T11:20:45;-11650.84;;;-142.29;100.00
7748;BME280;3918;42.564;23.164;2024-01-11T11:23:14;-11650.84;;;-142.29;100.00
7748;BME280;3918;42.564;23.164;2024-01-11T11:25:45;-11650.84;;;-142.29;100.00
7748;BME280;3918;42.564;23.164;2024-01-11T11:28:12;-11650.84;;;-142.29;100.00
7748;BME280;3918;42.564;23.164;2024-01-11T11:30:41;-11650.84;;;-142.29;100.00
7748;BME280;3918;42.564;23.164;2024-01-11T11:33:09;-11650.84;;;-142.29;100.00
7748;BME280;3918;42.564;23.164;2024-01-11T11:35:38;-11650.84;;;-142.29;100.00
7748;BME280;3918;42.564;23.164;2024-01-11T11:38:05;-11650.84;;;-142.29;100.00
7748;BME280;3918;42.564;23.164;2024-01-11T11:40:33;-11650.84;;;-142.29;100.00
7748;BME280;3918;42.564;23.164;2024-01-11T11:43:04;-11650.84;;;-142.29;100.00
7748;BME280;3918;42.564;23.164;2024-01-11T11:45:31;-11650.84;;;-142.29;100.00
7748;BME280;3918;42.564;23.164;2024-01-11T11:47:59;-11650.84;;;-142.29;100.00
7748;BME280;3918;42.564;23.164;2024-01-11T11:50:26;-11650.84;;;-142.29;100.00
7748;BME280;3918;42.564;23.164;2024-01-11T11:52:55;-11650.84;;;-142.29;100.00
7748;BME280;3918;42.564;23.164;2024-01-11T11:55:23;-11650.84;;;-142.29;100.00
7748;BME280;3918;42.564;23.164;2024-01-11T11:57:50;-11650.84;;;-142.29;100.00
7748;BME280;3918;42.564;23.164;2024-01-11T12:00:17;-11650.84;;;-142.29;100.00
7748;BME280;3918;42.564;23.164;2024-01-11T12:02:46;-11650.84;;;-142.29;100.00
7748;BME280;3918;42.564;23.164;2024-01-11T12:05:13;-11650.84;;;-142.29;100.00
7748;BME280;3918;42.564;23.164;2024-01-11T12:07:40;-11650.84;;;-142.29;100.00
7748;BME280;3918;42.564;23.164;2024-01-11T12:10:09;-11650.84;;;-142.29;100.00
7748;BME280;3918;42.564;23.164;2024-01-11T12:12:38;-11650.84;;;-142.29;100.00
7748;BME280;3918;42.564;23.164;2024-01-11T12:15:06;-11650.84;;;-142.29;100.00
7748;BME280;3918;42.564;23.164;2024-01-11T12:17:34;-11650.84;;;-142.29;100.00
7748;BME280;3918;42.564;23.164;2024-01-11T12:20:01;-11650.84;;;-142.29;100.00
7748;BME280;3918;42.564;23.164;2024-01-11T12:22:29;-11650.84;;;-142.29;100.00
7748;BME280;3918;42.564;23.164;2024-01-11T12:24:56;-11650.84;;;-142.29;100.00
7748;BME280;3918;42.564;23.164;2024-01-11T12:27:24;-11650.84;;;-142.29;100.00
7748;BME280;3918;42.564;23.164;2024-01-11T12:29:52;-11650.84;;;-142.29;100.00
7748;BME280;3918;42.564;23.164;2024-01-11T12:32:19;-11650.84;;;-142.29;100.00
7748;BME280;3918;42.564;23.164;2024-01-11T12:34:46;-11650.84;;;-142.29;100.00
7748;BME280;3918;42.564;23.164;2024-01-11T12:37:14;-11650.84;;;-142.29;100.00
7748;BME280;3918;42.564;23.164;2024-01-11T12:39:41;-11650.84;;;-142.29;100.00
7748;BME280;3918;42.564;23.164;2024-01-11T12:42:08;-11650.84;;;-142.29;100.00
7748;BME280;3918;42.564;23.164;2024-01-11T12:44:36;-11650.84;;;-142.29;100.00
7748;BME280;3918;42.564;23.164;2024-01-11T12:47:05;-11650.84;;;-142.29;100.00
7748;BME280;3918;42.564;23.164;2024-01-11T12:49:32;-11650.84;;;-142.29;100.00
7748;BME280;3918;42.564;23.164;2024-01-11T12:51:59;-11650.84;;;-142.29;100.00
7748;BME280;3918;42.564;23.164;2024-01-11T12:54:26;-11650.84;;;-142.29;100.00
7748;BME280;3918;42.564;23.164;2024-01-11T12:56:53;-11650.84;;;-142.29;100.00
7748;BME280;3918;42.564;23.164;2024-01-11T12:59:25;-11650.84;;;-142.29;100.00
7748;BME280;3918;42.564;23.164;2024-01-11T13:01:53;-11650.84;;;-142.29;100.00
7748;BME280;3918;42.564;23.164;2024-01-11T13:04:22;-11650.84;;;-142.29;100.00
7748;BME280;3918;42.564;23.164;2024-01-11T13:06:49;-11650.84;;;-142.29;100.00
7748;BME280;3918;42.564;23.164;2024-01-11T13:09:16;-11650.84;;;-142.29;100.00
7748;BME280;3918;42.564;23.164;2024-01-11T13:11:43;-11650.84;;;-142.29;100.00
7748;BME280;3918;42.564;23.164;2024-01-11T13:14:09;-11650.84;;;-142.29;100.00
7748;BME280;3918;42.564;23.164;2024-01-11T13:16:44;-11650.84;;;-142.29;100.00
7748;BME280;3918;42.564;23.164;2024-01-11T13:19:12;-11650.84;;;-142.29;100.00
7748;BME280;3918;42.564;23.164;2024-01-11T13:21:39;-11650.84;;;-142.29;100.00
7748;BME280;3918;42.564;23.164;2024-01-11T13:24:06;-11650.84;;;-142.29;100.00
7748;BME280;3918;42.564;23.164;2024-01-11T13:26:35;-11650.84;;;-142.29;100.00
7748;BME280;3918;42.564;23.164;2024-01-11T13:29:03;-11650.84;;;-142.29;100.00
7748;BME280;3918;42.564;23.164;2024-01-11T13:31:30;-11650.84;;;-142.29;100.00
7748;BME280;3918;42.564;23.164;2024-01-11T13:33:57;-11650.84;;;-142.29;100.00
7748;BME280;3918;42.564;23.164;2024-01-11T13:36:25;-11650.84;;;-142.29;100.00
7748;BME280;3918;42.564;23.164;2024-01-11T13:38:54;-11650.84;;;-142.29;100.00
7748;BME280;3918;42.564;23.164;2024-01-11T13:41:21;-11650.84;;;-142.29;100.00
7748;BME280;3918;42.564;23.164;2024-01-11T13:43:47;-11650.84;;;-142.29;100.00
7748;BME280;3918;42.564;23.164;2024-01-11T13:46:14;-11650.84;;;-142.29;100.00
7748;BME280;3918;42.564;23.164;2024-01-11T13:48:43;-11650.84;;;-142.29;100.00
7748;BME280;3918;42.564;23.164;2024-01-11T13:51:09;-11650.84;;;-142.29;100.00
7748;BME280;3918;42.564;23.164;2024-01-11T13:53:39;-11650.84;;;-142.29;100.00
7748;BME280;3918;42.564;23.164;2024-01-11T13:56:06;-11650.84;;;-142.29;100.00
7748;BME280;3918;42.564;23.164;2024-01-11T13:58:33;-11650.84;;;-142.29;100.00
7748;BME280;3918;42.564;23.164;2024-01-11T14:01:00;-11650.84;;;-142.29;100.00
7748;BME280;3918;42.564;23.164;2024-01-11T14:03:27;-11650.84;;;-142.29;100.00
7748;BME280;3918;42.564;23.164;2024-01-11T14:05:54;-11650.84;;;-142.29;100.00
7748;BME280;3918;42.564;23.164;2024-01-11T14:08:21;-11650.84;;;-142.29;100.00
7748;BME280;3918;42.564;23.164;2024-01-11T14:10:49;-11650.84;;;-142.29;100.00
7748;BME280;3918;42.564;23.164;2024-01-11T14:13:16;-11650.84;;;-142.29;100.00
7748;BME280;3918;42.564;23.164;2024-01-11T14:15:42;-11650.84;;;-142.29;100.00
7748;BME280;3918;42.564;23.164;2024-01-11T14:18:10;-11650.84;;;-142.29;100.00
7748;BME280;3918;42.564;23.164;2024-01-11T14:20:37;-11650.84;;;-142.29;100.00
7748;BME280;3918;42.564;23.164;2024-01-11T14:23:04;-11650.84;;;-142.29;100.00
7748;BME280;3918;42.564;23.164;2024-01-11T14:25:31;-11650.84;;;-142.29;100.00
7748;BME280;3918;42.564;23.164;2024-01-11T14:27:59;-11650.84;;;-142.29;100.00
7748;BME280;3918;42.564;23.164;2024-01-11T14:30:26;-11650.84;;;-142.29;100.00
7748;BME280;3918;42.564;23.164;2024-01-11T14:32:53;-11650.84;;;-142.29;100.00
7748;BME280;3918;42.564;23.164;2024-01-11T14:35:20;-11650.84;;;-142.29;100.00
7748;BME280;3918;42.564;23.164;2024-01-11T14:37:47;-11650.84;;;-142.29;100.00
7748;BME280;3918;42.564;23.164;2024-01-11T14:40:13;-11650.84;;;-142.29;100.00
7748;BME280;3918;42.564;23.164;2024-01-11T14:42:40;-11650.84;;;-142.29;100.00
7748;BME280;3918;42.564;23.164;2024-01-11T14:45:09;-11650.84;;;-142.29;100.00
7748;BME280;3918;42.564;23.164;2024-01-11T14:47:36;-11650.84;;;-142.29;100.00
7748;BME280;3918;42.564;23.164;2024-01-11T14:50:04;-11650.84;;;-142.29;100.00
7748;BME280;3918;42.564;23.164;2024-01-11T14:52:35;-11650.84;;;-142.29;100.00
7748;BME280;3918;42.564;23.164;2024-01-11T14:55:01;-11650.84;;;-142.29;100.00
7748;BME280;3918;42.564;23.164;2024-01-11T14:57:29;-11650.84;;;-142.29;100.00
7748;BME280;3918;42.564;23.164;2024-01-11T14:59:56;-11650.84;;;-142.29;100.00
7748;BME280;3918;42.564;23.164;2024-01-11T15:02:24;-11650.84;;;-142.29;100.00
7748;BME280;3918;42.564;23.164;2024-01-11T15:04:51;-11650.84;;;-142.29;100.00
7748;BME280;3918;42.564;23.164;2024-01-11T15:07:18;-11650.84;;;-142.29;100.00
7748;BME280;3918;42.564;23.164;2024-01-11T15:09:45;-11650.84;;;-142.29;100.00
7748;BME280;3918;42.564;23.164;2024-01-11T15:12:11;-11650.84;;;-142.29;100.00
7748;BME280;3918;42.564;23.164;2024-01-11T15:14:38;-11650.84;;;-142.29;100.00
7748;BME280;3918;42.564;23.164;2024-01-11T15:17:05;-11650.84;;;-142.29;100.00
7748;BME280;3918;42.564;23.164;2024-01-11T15:19:33;-11650.84;;;-142.29;100.00
7748;BME280;3918;42.564;23.164;2024-01-11T15:22:00;-11650.84;;;-142.29;100.00
7748;BME280;3918;42.564;23.164;2024-01-11T15:24:26;-11650.84;;;-142.29;100.00
7748;BME280;3918;42.564;23.164;2024-01-11T15:26:54;-11650.84;;;-142.29;100.00
7748;BME280;3918;42.564;23.164;2024-01-11T15:29:20;-11650.84;;;-142.29;100.00
7748;BME280;3918;42.564;23.164;2024-01-11T15:31:47;-11650.84;;;-142.29;100.00
7748;BME280;3918;42.564;23.164;2024-01-11T15:34:15;-11650.84;;;-142.29;100.00
7748;BME280;3918;42.564;23.164;2024-01-11T15:36:43;-11650.84;;;-142.29;100.00
7748;BME280;3918;42.564;23.164;2024-01-11T15:39:10;-11650.84;;;-142.29;100.00
7748;BME280;3918;42.564;23.164;2024-01-11T15:41:37;-11650.84;;;-142.29;100.00
7748;BME280;3918;42.564;23.164;2024-01-11T15:44:04;-11650.84;;;-142.29;100.00
7748;BME280;3918;42.564;23.164;2024-01-11T15:46:31;-11650.84;;;-142.29;100.00
7748;BME280;3918;42.564;23.164;2024-01-11T15:48:57;-11650.84;;;-142.29;100.00
7748;BME280;3918;42.564;23.164;2024-01-11T15:51:26;-11650.84;;;-142.29;100.00
7748;BME280;3918;42.564;23.164;2024-01-11T15:53:54;-11650.84;;;-142.29;100.00
7748;BME280;3918;42.564;23.164;2024-01-11T15:56:21;-11650.84;;;-142.29;100.00
7748;BME280;3918;42.564;23.164;2024-01-11T15:58:48;-11650.84;;;-142.29;100.00
7748;BME280;3918;42.564;23.164;2024-01-11T16:01:14;-11650.84;;;-142.29;100.00
7748;BME280;3918;42.564;23.164;2024-01-11T16:03:41;-11650.84;;;-142.29;100.00
7748;BME280;3918;42.564;23.164;2024-01-11T16:06:10;-11650.84;;;-142.29;100.00
7748;BME280;3918;42.564;23.164;2024-01-11T16:08:36;-11650.84;;;-142.29;100.00
7748;BME280;3918;42.564;23.164;2024-01-11T16:11:05;-11650.84;;;-142.29;100.00
7748;BME280;3918;42.564;23.164;2024-01-11T16:13:31;-11650.84;;;-142.29;100.00
7748;BME280;3918;42.564;23.164;2024-01-11T16:15:58;-11650.84;;;-142.29;100.00
7748;BME280;3918;42.564;23.164;2024-01-11T16:18:25;-11650.84;;;-142.29;100.00
7748;BME280;3918;42.564;23.164;2024-01-11T16:20:52;-11650.84;;;-142.29;100.00
7748;BME280;3918;42.564;23.164;2024-01-11T16:23:20;-11650.84;;;-142.29;100.00
7748;BME280;3918;42.564;23.164;2024-01-11T16:25:47;-11650.84;;;-142.29;100.00
7748;BME280;3918;42.564;23.164;2024-01-11T16:28:15;-11650.84;;;-142.29;100.00
7748;BME280;3918;42.564;23.164;2024-01-11T16:30:42;-11650.84;;;-142.29;100.00
7748;BME280;3918;42.564;23.164;2024-01-11T16:33:10;-11650.84;;;-142.29;100.00
7748;BME280;3918;42.564;23.164;2024-01-11T16:35:38;-11650.84;;;-142.29;100.00
7748;BME280;3918;42.564;23.164;2024-01-11T16:38:05;-11650.84;;;-142.29;100.00
7748;BME280;3918;42.564;23.164;2024-01-11T16:40:31;-11650.84;;;-142.29;100.00
7748;BME280;3918;42.564;23.164;2024-01-11T16:42:59;-11650.84;;;-142.29;100.00
7748;BME280;3918;42.564;23.164;2024-01-11T16:45:27;-11650.84;;;-142.29;100.00
7748;BME280;3918;42.564;23.164;2024-01-11T16:47:57;-11650.84;;;-142.29;100.00
7748;BME280;3918;42.564;23.164;2024-01-11T16:50:23;-11650.84;;;-142.29;100.00
7748;BME280;3918;42.564;23.164;2024-01-11T16:52:50;-11650.84;;;-142.29;100.00
7748;BME280;3918;42.564;23.164;2024-01-11T16:55:17;-11650.84;;;-142.29;100.00
7748;BME280;3918;42.564;23.164;2024-01-11T16:57:44;-11650.84;;;-142.29;100.00
7748;BME280;3918;42.564;23.164;2024-01-11T17:00:11;-11650.84;;;-142.29;100.00
7748;BME280;3918;42.564;23.164;2024-01-11T17:02:40;-11650.84;;;-142.29;100.00
7748;BME280;3918;42.564;23.164;2024-01-11T17:05:07;-11650.84;;;-142.29;100.00
7748;BME280;3918;42.564;23.164;2024-01-11T17:07:34;-11650.84;;;-142.29;100.00
7748;BME280;3918;42.564;23.164;2024-01-11T17:10:00;-11650.84;;;-142.29;100.00
7748;BME280;3918;42.564;23.164;2024-01-11T17:12:27;-11650.84;;;-142.29;100.00
7748;BME280;3918;42.564;23.164;2024-01-11T17:14:54;-11650.84;;;-142.29;100.00
7748;BME280;3918;42.564;23.164;2024-01-11T17:17:21;-11650.84;;;-142.29;100.00
7748;BME280;3918;42.564;23.164;2024-01-11T17:19:49;-11650.84;;;-142.29;100.00
7748;BME280;3918;42.564;23.164;2024-01-11T17:22:16;-11650.84;;;-142.29;100.00
7748;BME280;3918;42.564;23.164;2024-01-11T17:24:43;-11650.84;;;-142.29;100.00
7748;BME280;3918;42.564;23.164;2024-01-11T17:27:10;-11650.84;;;-142.29;100.00
7748;BME280;3918;42.564;23.164;2024-01-11T17:29:40;-11650.84;;;-142.29;100.00
7748;BME280;3918;42.564;23.164;2024-01-11T17:32:07;-11650.84;;;-142.29;100.00
7748;BME280;3918;42.564;23.164;2024-01-11T17:34:34;-11650.84;;;-142.29;100.00